Terminal Aerodrome Forecast
Issued by NWS

Home | Current Version | Previous Version | Text Only | Print | Product List | Glossary On
Versions: 1 2 3 4 5 6 7 8 9 10 11 12 13 14 15 16 17 18 19 20 21
000
FTUS45 KREV 260529
TAFTVL
TAF
KTVL 260529Z 2606/2706 VRB04KT P6SM SCT030 OVC080
      TEMPO 2606/2608 BKN030
     FM261000 19011G19KT P6SM VCSH BKN025 OVC050
     FM261600 19015G30KT P6SM -SHRA BKN025 OVC040 WS020/26045KT
     FM262200 20012G18KT P6SM VCSH BKN030 OVC050 WS020/26050KT
     FM270300 19011KT P6SM SCT035 BKN070=

USA.gov is the U.S. government's official web portal to all federal, state and local government web resources and services.